createdAt,value
2023-05-15T00:01:13.115Z,17.57
2023-05-15T00:03:43.824Z,17.55
2023-05-15T00:06:14.731Z,17.53
2023-05-15T00:08:45.869Z,17.51
2023-05-15T00:11:16.344Z,17.49
2023-05-15T00:13:47.132Z,17.52
2023-05-15T00:16:17.809Z,17.53
2023-05-15T00:18:48.371Z,17.55
2023-05-15T00:21:18.854Z,17.56
2023-05-15T00:23:49.474Z,17.56
2023-05-15T00:26:19.896Z,17.57
2023-05-15T00:28:50.958Z,17.55
2023-05-15T00:31:21.659Z,17.54
2023-05-15T00:33:52.401Z,17.53
2023-05-15T00:36:24.304Z,17.53
2023-05-15T00:38:54.998Z,17.51
2023-05-15T00:41:28.745Z,17.49
2023-05-15T00:44:01.553Z,17.47
2023-05-15T00:46:34.289Z,17.48
2023-05-15T00:49:07.152Z,17.49
2023-05-15T00:51:38.398Z,17.48
2023-05-15T00:54:10.411Z,17.47
2023-05-15T00:56:42.630Z,17.45
2023-05-15T00:59:14.473Z,17.43
2023-05-15T01:01:45.546Z,17.42
2023-05-15T01:04:16.065Z,17.38
2023-05-15T01:06:46.609Z,17.36
2023-05-15T01:09:19.133Z,17.33
2023-05-15T01:11:51.552Z,17.30
2023-05-15T01:14:22.026Z,17.27
2023-05-15T01:16:52.717Z,17.24
2023-05-15T01:19:23.571Z,17.20
2023-05-15T01:22:36.097Z,17.20
2023-05-15T01:25:45.802Z,17.19
2023-05-15T01:28:21.016Z,17.17
2023-05-15T01:30:54.235Z,17.16
2023-05-15T01:33:27.856Z,17.16
2023-05-15T01:36:06.087Z,17.16
2023-05-15T01:38:40.882Z,17.17
2023-05-15T01:41:16.946Z,17.16
2023-05-15T01:43:50.523Z,17.15
2023-05-15T01:46:24.695Z,17.12
2023-05-15T01:48:59.299Z,17.10
2023-05-15T01:51:32.150Z,17.09
2023-05-15T01:54:04.638Z,17.11
2023-05-15T01:56:37.697Z,17.12
2023-05-15T01:59:08.385Z,17.12
2023-05-15T02:01:41.013Z,17.12
2023-05-15T02:04:12.702Z,17.11
2023-05-15T02:06:42.240Z,17.10
2023-05-15T02:09:13.911Z,17.07
2023-05-15T02:11:45.121Z,17.04
2023-05-15T02:14:18.197Z,17.00
2023-05-15T02:16:48.910Z,16.96
2023-05-15T02:19:19.458Z,16.92
2023-05-15T02:21:50.115Z,16.90
2023-05-15T02:24:20.604Z,16.92
2023-05-15T02:26:58.028Z,16.93
2023-05-15T02:29:38.127Z,16.93
2023-05-15T02:32:15.605Z,16.94
2023-05-15T02:34:54.247Z,16.93
2023-05-15T02:37:29.549Z,16.93
2023-05-15T02:40:02.104Z,16.91
2023-05-15T02:42:34.076Z,16.90
2023-05-15T02:45:06.972Z,16.88
2023-05-15T02:47:38.104Z,16.86
2023-05-15T02:50:10.821Z,16.83
2023-05-15T02:52:41.422Z,16.81
2023-05-15T02:55:13.080Z,16.83
2023-05-15T02:57:43.513Z,16.83
2023-05-15T03:00:16.284Z,16.82
2023-05-15T03:02:46.815Z,16.82
2023-05-15T03:05:17.802Z,16.81
2023-05-15T03:07:48.272Z,16.79
2023-05-15T03:10:18.908Z,16.78
2023-05-15T03:12:49.330Z,16.75
2023-05-15T03:15:20.472Z,16.72
2023-05-15T03:17:51.043Z,16.70
2023-05-15T03:20:21.838Z,16.69
2023-05-15T03:22:52.370Z,16.66
2023-05-15T03:25:23.695Z,16.67
2023-05-15T03:27:54.382Z,16.67
2023-05-15T03:30:24.992Z,16.67
2023-05-15T03:32:57.673Z,16.66
2023-05-15T03:35:28.292Z,16.64
2023-05-15T03:37:58.827Z,16.62
2023-05-15T03:40:29.358Z,16.59
2023-05-15T03:43:01.325Z,16.59
2023-05-15T03:45:31.748Z,16.58
2023-05-15T03:48:02.245Z,16.57
2023-05-15T03:50:33.816Z,16.56
2023-05-15T03:53:04.315Z,16.58
2023-05-15T03:55:34.844Z,16.59
2023-05-15T03:58:05.735Z,16.58
2023-05-15T04:00:37.568Z,16.58
2023-05-15T04:03:08.244Z,16.58
2023-05-15T04:05:38.939Z,16.57
2023-05-15T04:08:11.081Z,16.56
2023-05-15T04:10:41.585Z,16.55
2023-05-15T04:13:12.186Z,16.52
2023-05-15T04:15:43.180Z,16.50
2023-05-15T04:18:13.654Z,16.47
2023-05-15T04:20:44.098Z,16.48
2023-05-15T04:23:14.599Z,16.49
2023-05-15T04:25:46.979Z,16.47
2023-05-15T04:28:17.660Z,16.47
2023-05-15T04:30:48.079Z,16.46
2023-05-15T04:33:18.570Z,16.45
2023-05-15T04:35:49.181Z,16.45
2023-05-15T04:38:19.681Z,16.44
2023-05-15T04:40:51.281Z,16.43
2023-05-15T04:43:21.734Z,16.41
2023-05-15T04:45:52.314Z,16.43
2023-05-15T04:48:22.788Z,16.43
2023-05-15T04:50:53.263Z,16.41
2023-05-15T04:53:23.830Z,16.41
2023-05-15T04:55:54.366Z,16.40
2023-05-15T04:58:24.904Z,16.39
2023-05-15T05:00:55.655Z,16.39
2023-05-15T05:03:26.386Z,16.40
2023-05-15T05:05:56.990Z,16.40
2023-05-15T05:08:27.625Z,16.40
2023-05-15T05:11:01.041Z,16.40
2023-05-15T05:13:31.931Z,16.42
2023-05-15T05:16:02.925Z,16.43
2023-05-15T05:18:34.085Z,16.43
2023-05-15T05:21:05.237Z,16.43
2023-05-15T05:23:35.804Z,16.43
2023-05-15T05:26:06.402Z,16.45
2023-05-15T05:28:36.963Z,16.45
2023-05-15T05:31:08.234Z,16.44
2023-05-15T05:33:38.838Z,16.44
2023-05-15T05:36:10.218Z,16.44
2023-05-15T05:38:40.700Z,16.46
2023-05-15T05:41:11.134Z,16.47
2023-05-15T05:43:41.658Z,16.47
2023-05-15T05:46:12.135Z,16.46
2023-05-15T05:48:42.640Z,16.46
2023-05-15T05:51:13.122Z,16.46
2023-05-15T05:53:43.772Z,16.45
2023-05-15T05:56:14.363Z,16.45
2023-05-15T05:58:44.953Z,16.44
2023-05-15T06:01:15.592Z,16.43
2023-05-15T06:03:46.869Z,16.46
2023-05-15T06:06:17.515Z,16.46
2023-05-15T06:08:47.978Z,16.48
2023-05-15T06:11:18.651Z,16.48
2023-05-15T06:13:49.117Z,16.48
2023-05-15T06:16:20.015Z,16.47
2023-05-15T06:18:51.249Z,16.49
2023-05-15T06:21:22.366Z,16.51
2023-05-15T06:23:53.166Z,16.52
2023-05-15T06:26:24.049Z,16.56
2023-05-15T06:28:54.890Z,16.58
2023-05-15T06:31:25.488Z,16.60
2023-05-15T06:33:56.285Z,16.61
2023-05-15T06:36:26.867Z,16.62
2023-05-15T06:38:57.354Z,16.63
2023-05-15T06:41:28.250Z,16.64
2023-05-15T06:43:59.636Z,16.65
2023-05-15T06:46:30.166Z,16.66
2023-05-15T06:49:00.610Z,16.70
2023-05-15T06:51:31.678Z,16.74
2023-05-15T06:54:02.453Z,16.75
2023-05-15T06:56:32.910Z,16.77
2023-05-15T06:59:03.443Z,16.78
2023-05-15T07:01:34.440Z,16.79
2023-05-15T07:04:05.027Z,16.78
2023-05-15T07:06:36.438Z,16.77
2023-05-15T07:09:06.900Z,16.76
2023-05-15T07:11:38.977Z,16.74
2023-05-15T07:14:09.649Z,16.74
2023-05-15T07:16:40.124Z,16.77
2023-05-15T07:19:11.874Z,16.80
2023-05-15T07:21:42.942Z,16.83
2023-05-15T07:24:13.538Z,16.88
2023-05-15T07:26:57.655Z,16.91
2023-05-15T07:29:29.583Z,16.97
2023-05-15T07:32:00.191Z,17.01
2023-05-15T07:34:30.771Z,17.05
2023-05-15T07:37:01.276Z,17.09
2023-05-15T07:39:31.826Z,17.13
2023-05-15T07:42:02.388Z,17.15
2023-05-15T07:44:32.814Z,17.21
2023-05-15T07:47:03.627Z,17.25
2023-05-15T07:49:34.275Z,17.27
2023-05-15T07:52:05.380Z,17.27
2023-05-15T07:54:35.909Z,17.26
2023-05-15T07:57:06.792Z,17.24
2023-05-15T07:59:37.464Z,17.23
2023-05-15T08:02:08.320Z,17.21
2023-05-15T08:04:38.823Z,17.20
2023-05-15T08:07:09.480Z,17.20
2023-05-15T08:09:39.981Z,17.20
2023-05-15T08:12:21.734Z,17.19
2023-05-15T08:14:53.747Z,17.16
2023-05-15T08:17:26.265Z,17.13
2023-05-15T08:19:57.169Z,17.15
2023-05-15T08:22:30.384Z,17.16
2023-05-15T08:25:03.964Z,17.17
2023-05-15T08:27:35.669Z,17.18
2023-05-15T08:30:07.503Z,17.19
2023-05-15T08:32:36.525Z,17.21
2023-05-15T08:35:08.254Z,17.21
2023-05-15T08:37:38.782Z,17.22
2023-05-15T08:40:11.531Z,17.19
2023-05-15T08:42:46.502Z,17.17
2023-05-15T08:45:17.002Z,17.14
2023-05-15T08:47:47.484Z,17.12
2023-05-15T08:50:18.865Z,17.12
2023-05-15T08:52:51.705Z,17.11
2023-05-15T08:55:24.022Z,17.09
2023-05-15T08:57:56.144Z,17.05
2023-05-15T09:00:27.324Z,17.01
2023-05-15T09:03:00.904Z,16.97
2023-05-15T09:05:32.898Z,16.93
2023-05-15T09:08:07.998Z,16.89
2023-05-15T09:10:38.610Z,16.86
2023-05-15T09:13:10.836Z,16.82
2023-05-15T09:15:41.440Z,16.81
2023-05-15T09:18:12.737Z,16.79
2023-05-15T09:20:43.409Z,16.78
2023-05-15T09:23:28.412Z,16.79
2023-05-15T09:26:02.161Z,16.80
2023-05-15T09:28:34.055Z,16.81
2023-05-15T09:31:05.847Z,16.83
2023-05-15T09:33:35.773Z,16.82
2023-05-15T09:36:08.591Z,16.81
2023-05-15T09:38:43.369Z,16.83
2023-05-15T09:41:13.853Z,16.89
2023-05-15T09:43:44.343Z,16.92
2023-05-15T09:46:16.146Z,16.93
2023-05-15T09:48:45.694Z,16.93
2023-05-15T09:51:20.060Z,16.94
2023-05-15T09:53:53.667Z,16.97
2023-05-15T09:56:26.376Z,17.00
2023-05-15T09:58:58.305Z,17.02
2023-05-15T10:01:29.067Z,17.04
2023-05-15T10:04:04.537Z,17.10
2023-05-15T10:06:42.105Z,17.15
2023-05-15T10:09:15.180Z,17.18
2023-05-15T10:11:51.509Z,17.23
2023-05-15T10:14:24.370Z,17.25
2023-05-15T10:16:56.866Z,17.24
2023-05-15T10:19:29.441Z,17.23
2023-05-15T10:22:01.636Z,17.20
2023-05-15T10:24:34.066Z,17.19
2023-05-15T10:27:06.344Z,17.19
2023-05-15T10:29:37.704Z,17.17
2023-05-15T10:32:09.580Z,17.24
2023-05-15T10:34:40.179Z,17.35
2023-05-15T10:37:12.076Z,17.45
2023-05-15T10:39:43.484Z,17.53
2023-05-15T10:42:16.169Z,17.58
2023-05-15T10:44:46.625Z,17.59
2023-05-15T10:47:17.227Z,17.59
2023-05-15T10:49:48.171Z,17.58
2023-05-15T10:52:18.712Z,17.56
2023-05-15T10:54:49.365Z,17.55
2023-05-15T10:57:21.716Z,17.56
2023-05-15T10:59:52.661Z,17.55
2023-05-15T11:02:25.285Z,17.52
2023-05-15T11:05:00.406Z,17.49
2023-05-15T11:07:31.040Z,17.49
2023-05-15T11:10:03.162Z,17.48
2023-05-15T11:12:58.761Z,17.47
2023-05-15T11:15:42.365Z,17.47
2023-05-15T11:18:13.185Z,17.50
2023-05-15T11:21:04.246Z,17.54
2023-05-15T11:23:42.050Z,17.58
2023-05-15T11:26:16.086Z,17.62
2023-05-15T11:28:47.364Z,17.68
2023-05-15T11:31:18.044Z,17.72
2023-05-15T11:33:52.899Z,17.77
2023-05-15T11:36:26.932Z,17.83
2023-05-15T11:38:58.607Z,17.90
2023-05-15T11:41:33.786Z,17.98
2023-05-15T11:44:04.284Z,18.03
2023-05-15T11:46:36.242Z,18.01
2023-05-15T11:49:07.113Z,18.01
2023-05-15T11:51:43.248Z,17.98
2023-05-15T11:54:15.042Z,17.99
2023-05-15T11:56:45.373Z,17.99
2023-05-15T11:59:16.539Z,17.97
2023-05-15T12:01:48.401Z,17.95
2023-05-15T12:04:20.784Z,17.91
2023-05-15T12:06:51.706Z,17.90
2023-05-15T12:09:27.623Z,17.87
2023-05-15T12:11:58.722Z,17.86
2023-05-15T12:14:33.950Z,17.87
2023-05-15T12:17:05.158Z,17.89
2023-05-15T12:19:36.840Z,17.90
2023-05-15T12:22:09.092Z,17.88
2023-05-15T12:24:42.134Z,17.89
2023-05-15T12:27:14.373Z,17.91
2023-05-15T12:29:45.845Z,17.97
2023-05-15T12:32:16.678Z,18.03
2023-05-15T12:34:47.259Z,18.09
2023-05-15T12:37:20.779Z,18.18
2023-05-15T12:39:56.879Z,18.27
2023-05-15T12:42:27.478Z,18.37
2023-05-15T12:44:58.544Z,18.48
2023-05-15T12:47:30.048Z,18.56
2023-05-15T12:50:00.639Z,18.63
2023-05-15T12:52:32.734Z,18.65
2023-05-15T12:55:04.020Z,18.64
2023-05-15T12:57:36.223Z,18.60
2023-05-15T13:00:11.440Z,18.54
2023-05-15T13:02:43.712Z,18.48
2023-05-15T13:05:14.748Z,18.42
2023-05-15T13:07:45.600Z,18.37
2023-05-15T13:10:16.330Z,18.33
2023-05-15T13:12:48.026Z,18.28
2023-05-15T13:15:30.835Z,18.22
2023-05-15T13:18:05.568Z,18.13
2023-05-15T13:20:39.927Z,18.07
2023-05-15T13:23:11.732Z,18.03
2023-05-15T13:25:42.250Z,18.00
2023-05-15T13:28:13.896Z,17.95
2023-05-15T13:30:44.894Z,17.91
2023-05-15T13:33:15.722Z,17.87
2023-05-15T13:35:46.275Z,17.81
2023-05-15T13:38:16.713Z,17.76
2023-05-15T13:40:47.206Z,17.74
2023-05-15T13:43:17.614Z,17.73
2023-05-15T13:45:48.152Z,17.71
2023-05-15T13:48:18.622Z,17.71
2023-05-15T13:50:49.235Z,17.70
2023-05-15T13:53:19.756Z,17.71
2023-05-15T13:55:50.306Z,17.70
2023-05-15T13:58:20.831Z,17.67
2023-05-15T14:00:52.246Z,17.64
2023-05-15T14:03:22.874Z,17.61
2023-05-15T14:05:53.865Z,17.56
2023-05-15T14:08:24.340Z,17.53
2023-05-15T14:10:54.775Z,17.52
2023-05-15T14:13:25.367Z,17.57
2023-05-15T14:15:56.083Z,17.59
2023-05-15T14:18:26.926Z,17.58
2023-05-15T14:20:57.394Z,17.60
2023-05-15T14:23:27.885Z,17.59
2023-05-15T14:25:58.688Z,17.53
2023-05-15T14:28:29.197Z,17.48
2023-05-15T14:31:00.242Z,17.40
2023-05-15T14:33:31.817Z,17.37
2023-05-15T14:36:04.542Z,17.33
2023-05-15T14:38:34.981Z,17.31
2023-05-15T14:41:06.152Z,17.19
2023-05-15T14:43:36.605Z,17.13
2023-05-15T14:46:10.566Z,17.13
2023-05-15T14:48:41.897Z,17.14
2023-05-15T14:51:12.659Z,17.11
2023-05-15T14:53:44.613Z,17.09
2023-05-15T14:56:15.059Z,17.08
2023-05-15T14:58:46.674Z,17.11
2023-05-15T15:01:23.060Z,17.15
2023-05-15T15:03:53.607Z,17.14
2023-05-15T15:06:24.072Z,17.12
2023-05-15T15:08:54.556Z,17.12
2023-05-15T15:11:25.471Z,17.09
2023-05-15T15:13:56.000Z,17.07
2023-05-15T15:16:26.506Z,17.11
2023-05-15T15:18:57.068Z,17.17
2023-05-15T15:21:27.693Z,17.20
2023-05-15T15:23:58.148Z,17.20
2023-05-15T15:26:28.613Z,17.19
2023-05-15T15:29:01.022Z,17.20
2023-05-15T15:31:32.623Z,17.22
2023-05-15T15:34:05.263Z,17.26
2023-05-15T15:36:38.666Z,17.26
2023-05-15T15:39:09.884Z,17.25
2023-05-15T15:41:41.770Z,17.20
2023-05-15T15:44:12.307Z,17.14
2023-05-15T15:46:42.991Z,17.11
2023-05-15T15:49:13.508Z,17.13
2023-05-15T15:51:44.326Z,17.14
2023-05-15T15:54:14.790Z,17.13
2023-05-15T15:56:45.349Z,17.14
2023-05-15T15:59:16.575Z,17.13
2023-05-15T16:01:47.501Z,17.11
2023-05-15T16:04:18.149Z,17.09
2023-05-15T16:06:48.766Z,17.08
2023-05-15T16:09:20.254Z,17.06
2023-05-15T16:11:50.731Z,17.05
2023-05-15T16:14:21.625Z,17.05
2023-05-15T16:16:52.589Z,17.08
2023-05-15T16:19:23.134Z,17.10
2023-05-15T16:21:55.857Z,17.13
2023-05-15T16:24:26.748Z,17.18
2023-05-15T16:26:57.295Z,17.21
2023-05-15T16:29:28.782Z,17.25
2023-05-15T16:32:00.364Z,17.27
2023-05-15T16:34:32.129Z,17.30
2023-05-15T16:37:02.593Z,17.30
2023-05-15T16:39:38.185Z,17.34
2023-05-15T16:42:09.619Z,17.34
2023-05-15T16:44:40.376Z,17.34
2023-05-15T16:47:10.820Z,17.34
2023-05-15T16:49:44.017Z,17.34
2023-05-15T16:52:15.952Z,17.34
2023-05-15T16:54:46.471Z,17.34
2023-05-15T16:57:17.998Z,17.36
2023-05-15T16:59:48.504Z,17.35
2023-05-15T17:02:19.124Z,17.33
2023-05-15T17:04:49.701Z,17.30
2023-05-15T17:07:20.172Z,17.25
2023-05-15T17:09:50.679Z,17.19
2023-05-15T17:12:21.128Z,17.15
2023-05-15T17:14:51.664Z,17.11
2023-05-15T17:17:23.284Z,17.09
2023-05-15T17:19:53.934Z,17.06
2023-05-15T17:22:25.065Z,17.02
2023-05-15T17:24:55.486Z,16.99
2023-05-15T17:27:26.440Z,16.97
2023-05-15T17:29:57.040Z,17.00
2023-05-15T17:32:27.903Z,17.02
2023-05-15T17:34:58.486Z,17.02
2023-05-15T17:37:28.947Z,17.01
2023-05-15T17:39:59.381Z,17.00
2023-05-15T17:42:29.921Z,17.01
2023-05-15T17:45:00.498Z,17.01
2023-05-15T17:47:31.041Z,17.02
2023-05-15T17:50:01.575Z,17.03
2023-05-15T17:52:32.079Z,17.04
2023-05-15T17:55:02.571Z,17.04
2023-05-15T17:57:33.041Z,17.04
2023-05-15T18:00:04.339Z,17.05
2023-05-15T18:02:42.732Z,17.02
2023-05-15T18:05:13.384Z,16.98
2023-05-15T18:07:48.024Z,16.99
2023-05-15T18:10:18.472Z,16.98
2023-05-15T18:12:48.933Z,16.94
2023-05-15T18:15:19.558Z,16.90
2023-05-15T18:17:50.490Z,16.86
2023-05-15T18:20:21.394Z,16.83
2023-05-15T18:22:51.848Z,16.80
2023-05-15T18:25:22.371Z,16.78
2023-05-15T18:27:53.232Z,16.79
2023-05-15T18:30:23.763Z,16.80
2023-05-15T18:32:54.245Z,16.78
2023-05-15T18:35:25.527Z,16.78
2023-05-15T18:37:56.249Z,16.79
2023-05-15T18:40:27.835Z,16.79
2023-05-15T18:42:58.428Z,16.78
2023-05-15T18:45:29.027Z,16.76
2023-05-15T18:47:59.558Z,16.74
2023-05-15T18:50:30.050Z,16.69
2023-05-15T18:53:08.416Z,16.66
2023-05-15T18:55:39.389Z,16.66
2023-05-15T18:58:09.913Z,16.66
2023-05-15T19:00:40.757Z,16.65
2023-05-15T19:03:11.410Z,16.65
2023-05-15T19:05:42.552Z,16.63
2023-05-15T19:08:13.365Z,16.61
2023-05-15T19:10:48.303Z,16.59
2023-05-15T19:13:19.005Z,16.58
2023-05-15T19:15:54.742Z,16.55
2023-05-15T19:18:25.208Z,16.52
2023-05-15T19:20:56.757Z,16.49
2023-05-15T19:23:27.227Z,16.46
2023-05-15T19:25:57.778Z,16.43
2023-05-15T19:28:28.490Z,16.44
2023-05-15T19:30:58.983Z,16.44
2023-05-15T19:33:29.531Z,16.44
2023-05-15T19:36:00.183Z,16.43
2023-05-15T19:38:30.762Z,16.41
2023-05-15T19:41:01.227Z,16.39
2023-05-15T19:43:35.784Z,16.36
2023-05-15T19:46:06.705Z,16.34
2023-05-15T19:48:37.137Z,16.30
2023-05-15T19:51:08.261Z,16.26
2023-05-15T19:53:38.779Z,16.23
2023-05-15T19:56:09.702Z,16.19
2023-05-15T19:58:40.929Z,16.17
2023-05-15T20:01:11.485Z,16.19
2023-05-15T20:03:42.181Z,16.21
2023-05-15T20:06:13.469Z,16.20
2023-05-15T20:08:44.065Z,16.20
2023-05-15T20:11:14.620Z,16.19
2023-05-15T20:13:45.623Z,16.17
2023-05-15T20:16:16.648Z,16.14
2023-05-15T20:18:48.128Z,16.12
2023-05-15T20:21:19.052Z,16.09
2023-05-15T20:23:49.642Z,16.05
2023-05-15T20:26:22.309Z,16.01
2023-05-15T20:28:52.835Z,15.97
2023-05-15T20:31:23.296Z,15.93
2023-05-15T20:33:57.276Z,15.90
2023-05-15T20:36:28.347Z,15.87
2023-05-15T20:38:59.035Z,15.87
2023-05-15T20:41:29.470Z,15.87
2023-05-15T20:44:00.504Z,15.86
2023-05-15T20:46:31.990Z,15.87
2023-05-15T20:49:02.987Z,15.87
2023-05-15T20:51:33.491Z,15.84
2023-05-15T20:54:03.968Z,15.81
2023-05-15T20:56:34.386Z,15.76
2023-05-15T20:59:04.842Z,15.72
2023-05-15T21:01:35.644Z,15.68
2023-05-15T21:04:06.363Z,15.66
2023-05-15T21:06:37.072Z,15.63
2023-05-15T21:09:08.461Z,15.60
2023-05-15T21:11:38.996Z,15.56
2023-05-15T21:14:09.786Z,15.53
2023-05-15T21:16:40.682Z,15.52
2023-05-15T21:19:11.683Z,15.51
2023-05-15T21:21:42.293Z,15.49
2023-05-15T21:24:12.735Z,15.51
2023-05-15T21:26:43.180Z,15.51
2023-05-15T21:29:13.829Z,15.49
2023-05-15T21:31:44.556Z,15.49
2023-05-15T21:34:15.085Z,15.48
2023-05-15T21:36:45.518Z,15.46
2023-05-15T21:39:16.150Z,15.44
2023-05-15T21:41:46.832Z,15.43
2023-05-15T21:44:17.628Z,15.41
2023-05-15T21:46:48.133Z,15.38
2023-05-15T21:49:18.604Z,15.36
2023-05-15T21:51:49.207Z,15.34
2023-05-15T21:54:19.838Z,15.31
2023-05-15T21:56:51.813Z,15.28
2023-05-15T21:59:22.333Z,15.25
2023-05-15T22:01:52.900Z,15.23
2023-05-15T22:04:23.686Z,15.21
2023-05-15T22:06:54.178Z,15.20
2023-05-15T22:09:24.652Z,15.17
2023-05-15T22:11:55.178Z,15.14
2023-05-15T22:14:25.672Z,15.13
2023-05-15T22:16:56.254Z,15.12
2023-05-15T22:19:33.121Z,15.14
2023-05-15T22:22:04.584Z,15.15
2023-05-15T22:24:35.029Z,15.15
2023-05-15T22:27:06.275Z,15.15
2023-05-15T22:29:36.778Z,15.16
2023-05-15T22:32:08.519Z,15.16
2023-05-15T22:34:37.607Z,15.15
2023-05-15T22:37:08.264Z,15.13
2023-05-15T22:39:38.893Z,15.13
2023-05-15T22:42:10.020Z,15.12
2023-05-15T22:44:41.024Z,15.12
2023-05-15T22:47:11.720Z,15.09
2023-05-15T22:49:42.242Z,15.07
2023-05-15T22:52:13.777Z,15.06
2023-05-15T22:54:44.742Z,15.05
2023-05-15T22:57:15.190Z,15.05
2023-05-15T22:59:46.141Z,15.04
2023-05-15T23:02:16.720Z,15.03
2023-05-15T23:04:47.282Z,15.01
2023-05-15T23:07:17.870Z,14.99
2023-05-15T23:09:48.326Z,15.02
2023-05-15T23:12:18.861Z,15.04
2023-05-15T23:14:49.402Z,15.04
2023-05-15T23:17:19.897Z,15.04
2023-05-15T23:19:50.511Z,15.03
2023-05-15T23:22:21.000Z,15.02
2023-05-15T23:24:51.517Z,15.01
2023-05-15T23:27:22.159Z,14.99
2023-05-15T23:29:52.593Z,14.97
2023-05-15T23:32:23.106Z,14.95
2023-05-15T23:34:54.554Z,14.92
2023-05-15T23:37:25.081Z,14.90
2023-05-15T23:39:56.220Z,14.85
2023-05-15T23:42:26.706Z,14.81
2023-05-15T23:44:57.278Z,14.78
2023-05-15T23:47:27.843Z,14.75
2023-05-15T23:49:58.389Z,14.72
2023-05-15T23:52:28.900Z,14.72
2023-05-15T23:54:59.502Z,14.73
2023-05-15T23:57:29.971Z,14.74
